sensor_id;sensor_type;location;lat;lon;timestamp;P1;durP1;ratioP1;P2;durP2;ratioP2
26325;SDS011;14032;52.510;7.342;2024-03-08T00:01:44;44.92;;;22.77;;
26325;SDS011;14032;52.510;7.342;2024-03-08T00:04:10;42.78;;;22.60;;
26325;SDS011;14032;52.510;7.342;2024-03-08T00:06:35;47.30;;;23.08;;
26325;SDS011;14032;52.510;7.342;2024-03-08T00:09:01;48.13;;;24.10;;
26325;SDS011;14032;52.510;7.342;2024-03-08T00:11:27;48.15;;;23.17;;
26325;SDS011;14032;52.510;7.342;2024-03-08T00:13:52;46.45;;;22.65;;
26325;SDS011;14032;52.510;7.342;2024-03-08T00:16:18;46.60;;;24.10;;
26325;SDS011;14032;52.510;7.342;2024-03-08T00:18:44;54.67;;;23.45;;
26325;SDS011;14032;52.510;7.342;2024-03-08T00:21:10;45.40;;;23.15;;
26325;SDS011;14032;52.510;7.342;2024-03-08T00:23:37;47.67;;;23.13;;
26325;SDS011;14032;52.510;7.342;2024-03-08T00:26:04;49.80;;;24.35;;
26325;SDS011;14032;52.510;7.342;2024-03-08T00:28:29;47.30;;;23.88;;
26325;SDS011;14032;52.510;7.342;2024-03-08T00:30:56;46.45;;;22.70;;
26325;SDS011;14032;52.510;7.342;2024-03-08T00:33:21;46.75;;;22.65;;
26325;SDS011;14032;52.510;7.342;2024-03-08T00:35:48;45.75;;;23.85;;
26325;SDS011;14032;52.510;7.342;2024-03-08T00:38:14;50.10;;;23.25;;
26325;SDS011;14032;52.510;7.342;2024-03-08T00:40:41;47.95;;;24.02;;
26325;SDS011;14032;52.510;7.342;2024-03-08T00:43:07;52.97;;;24.17;;
26325;SDS011;14032;52.510;7.342;2024-03-08T00:45:33;50.55;;;24.52;;
26325;SDS011;14032;52.510;7.342;2024-03-08T00:47:59;44.90;;;24.42;;
26325;SDS011;14032;52.510;7.342;2024-03-08T00:50:26;50.58;;;23.80;;
26325;SDS011;14032;52.510;7.342;2024-03-08T00:52:52;45.22;;;23.00;;
26325;SDS011;14032;52.510;7.342;2024-03-08T00:55:18;48.97;;;23.92;;
26325;SDS011;14032;52.510;7.342;2024-03-08T00:57:45;43.65;;;23.92;;
26325;SDS011;14032;52.510;7.342;2024-03-08T01:00:12;47.53;;;24.55;;
26325;SDS011;14032;52.510;7.342;2024-03-08T01:02:38;50.20;;;25.02;;
26325;SDS011;14032;52.510;7.342;2024-03-08T01:05:06;45.13;;;24.00;;
26325;SDS011;14032;52.510;7.342;2024-03-08T01:07:32;51.78;;;23.80;;
26325;SDS011;14032;52.510;7.342;2024-03-08T01:10:02;47.75;;;23.63;;
26325;SDS011;14032;52.510;7.342;2024-03-08T01:12:28;45.05;;;24.15;;
26325;SDS011;14032;52.510;7.342;2024-03-08T01:14:55;41.95;;;22.88;;
26325;SDS011;14032;52.510;7.342;2024-03-08T01:17:22;45.38;;;23.45;;
26325;SDS011;14032;52.510;7.342;2024-03-08T01:19:49;48.50;;;24.48;;
26325;SDS011;14032;52.510;7.342;2024-03-08T01:22:14;47.83;;;25.35;;
26325;SDS011;14032;52.510;7.342;2024-03-08T01:24:40;45.80;;;24.58;;
26325;SDS011;14032;52.510;7.342;2024-03-08T01:27:05;44.60;;;23.95;;
26325;SDS011;14032;52.510;7.342;2024-03-08T01:29:32;49.08;;;24.58;;
26325;SDS011;14032;52.510;7.342;2024-03-08T01:31:58;48.35;;;23.63;;
26325;SDS011;14032;52.510;7.342;2024-03-08T01:34:26;49.50;;;24.88;;
26325;SDS011;14032;52.510;7.342;2024-03-08T01:36:53;46.30;;;24.85;;
26325;SDS011;14032;52.510;7.342;2024-03-08T01:39:21;48.25;;;23.77;;
26325;SDS011;14032;52.510;7.342;2024-03-08T01:41:47;49.28;;;25.08;;
26325;SDS011;14032;52.510;7.342;2024-03-08T01:44:13;49.28;;;24.88;;
26325;SDS011;14032;52.510;7.342;2024-03-08T01:46:43;49.45;;;25.27;;
26325;SDS011;14032;52.510;7.342;2024-03-08T01:49:12;45.60;;;24.80;;
26325;SDS011;14032;52.510;7.342;2024-03-08T01:51:40;45.58;;;24.50;;
26325;SDS011;14032;52.510;7.342;2024-03-08T01:54:06;43.13;;;24.35;;
26325;SDS011;14032;52.510;7.342;2024-03-08T01:56:35;47.25;;;25.40;;
26325;SDS011;14032;52.510;7.342;2024-03-08T01:59:02;52.88;;;24.95;;
26325;SDS011;14032;52.510;7.342;2024-03-08T02:01:30;47.53;;;24.85;;
26325;SDS011;14032;52.510;7.342;2024-03-08T02:03:58;54.10;;;25.15;;
26325;SDS011;14032;52.510;7.342;2024-03-08T02:06:24;43.80;;;24.02;;
26325;SDS011;14032;52.510;7.342;2024-03-08T02:08:49;43.65;;;24.67;;
26325;SDS011;14032;52.510;7.342;2024-03-08T02:11:15;47.50;;;24.88;;
26325;SDS011;14032;52.510;7.342;2024-03-08T02:13:41;44.95;;;24.88;;
26325;SDS011;14032;52.510;7.342;2024-03-08T02:16:07;45.28;;;25.73;;
26325;SDS011;14032;52.510;7.342;2024-03-08T02:18:33;49.78;;;25.45;;
26325;SDS011;14032;52.510;7.342;2024-03-08T02:21:04;50.05;;;25.65;;
26325;SDS011;14032;52.510;7.342;2024-03-08T02:23:31;46.97;;;25.13;;
26325;SDS011;14032;52.510;7.342;2024-03-08T02:25:57;42.95;;;25.08;;
26325;SDS011;14032;52.510;7.342;2024-03-08T02:28:24;43.97;;;25.73;;
26325;SDS011;14032;52.510;7.342;2024-03-08T02:30:53;42.55;;;24.65;;
26325;SDS011;14032;52.510;7.342;2024-03-08T02:33:20;45.03;;;25.45;;
26325;SDS011;14032;52.510;7.342;2024-03-08T02:35:49;46.22;;;25.83;;
26325;SDS011;14032;52.510;7.342;2024-03-08T02:38:19;49.45;;;25.20;;
26325;SDS011;14032;52.510;7.342;2024-03-08T02:40:46;47.80;;;24.52;;
26325;SDS011;14032;52.510;7.342;2024-03-08T02:43:13;46.55;;;25.90;;
26325;SDS011;14032;52.510;7.342;2024-03-08T02:45:39;46.00;;;24.50;;
26325;SDS011;14032;52.510;7.342;2024-03-08T02:48:09;45.05;;;24.52;;
26325;SDS011;14032;52.510;7.342;2024-03-08T02:50:36;43.78;;;24.40;;
26325;SDS011;14032;52.510;7.342;2024-03-08T02:53:02;40.53;;;23.90;;
26325;SDS011;14032;52.510;7.342;2024-03-08T02:55:31;45.13;;;24.23;;
26325;SDS011;14032;52.510;7.342;2024-03-08T02:58:03;41.63;;;23.35;;
26325;SDS011;14032;52.510;7.342;2024-03-08T03:00:29;45.92;;;24.25;;
26325;SDS011;14032;52.510;7.342;2024-03-08T03:02:58;42.72;;;24.52;;
26325;SDS011;14032;52.510;7.342;2024-03-08T03:05:24;42.33;;;23.70;;
26325;SDS011;14032;52.510;7.342;2024-03-08T03:07:50;42.08;;;24.23;;
26325;SDS011;14032;52.510;7.342;2024-03-08T03:10:16;50.33;;;26.92;;
26325;SDS011;14032;52.510;7.342;2024-03-08T03:12:43;43.00;;;25.27;;
26325;SDS011;14032;52.510;7.342;2024-03-08T03:15:10;44.95;;;23.95;;
26325;SDS011;14032;52.510;7.342;2024-03-08T03:17:36;40.55;;;24.20;;
26325;SDS011;14032;52.510;7.342;2024-03-08T03:20:04;43.28;;;24.33;;
26325;SDS011;14032;52.510;7.342;2024-03-08T03:22:36;43.13;;;24.20;;
26325;SDS011;14032;52.510;7.342;2024-03-08T03:25:02;45.70;;;25.00;;
26325;SDS011;14032;52.510;7.342;2024-03-08T03:27:29;45.15;;;24.77;;
26325;SDS011;14032;52.510;7.342;2024-03-08T03:29:55;46.03;;;25.85;;
26325;SDS011;14032;52.510;7.342;2024-03-08T03:32:22;45.58;;;23.77;;
26325;SDS011;14032;52.510;7.342;2024-03-08T03:34:48;43.30;;;23.58;;
26325;SDS011;14032;52.510;7.342;2024-03-08T03:37:18;50.30;;;25.80;;
26325;SDS011;14032;52.510;7.342;2024-03-08T03:39:46;48.33;;;25.45;;
26325;SDS011;14032;52.510;7.342;2024-03-08T03:42:18;44.97;;;24.50;;
26325;SDS011;14032;52.510;7.342;2024-03-08T03:44:47;43.33;;;23.77;;
26325;SDS011;14032;52.510;7.342;2024-03-08T03:47:16;41.83;;;24.27;;
26325;SDS011;14032;52.510;7.342;2024-03-08T03:49:42;43.55;;;24.48;;
26325;SDS011;14032;52.510;7.342;2024-03-08T03:52:08;46.13;;;24.85;;
26325;SDS011;14032;52.510;7.342;2024-03-08T03:54:34;42.38;;;24.17;;
26325;SDS011;14032;52.510;7.342;2024-03-08T03:57:01;42.05;;;24.40;;
26325;SDS011;14032;52.510;7.342;2024-03-08T03:59:27;43.08;;;24.60;;
26325;SDS011;14032;52.510;7.342;2024-03-08T04:01:53;43.55;;;23.92;;
26325;SDS011;14032;52.510;7.342;2024-03-08T04:04:19;43.45;;;24.10;;
26325;SDS011;14032;52.510;7.342;2024-03-08T04:06:45;46.85;;;25.23;;
26325;SDS011;14032;52.510;7.342;2024-03-08T04:09:11;41.38;;;23.63;;
26325;SDS011;14032;52.510;7.342;2024-03-08T04:11:37;41.78;;;23.65;;
26325;SDS011;14032;52.510;7.342;2024-03-08T04:14:04;42.55;;;23.33;;
26325;SDS011;14032;52.510;7.342;2024-03-08T04:16:30;44.38;;;24.15;;
26325;SDS011;14032;52.510;7.342;2024-03-08T04:18:57;43.00;;;25.00;;
26325;SDS011;14032;52.510;7.342;2024-03-08T04:21:23;50.20;;;24.55;;
26325;SDS011;14032;52.510;7.342;2024-03-08T04:23:50;47.90;;;24.88;;
26325;SDS011;14032;52.510;7.342;2024-03-08T04:26:15;45.22;;;25.65;;
26325;SDS011;14032;52.510;7.342;2024-03-08T04:28:41;44.28;;;24.10;;
26325;SDS011;14032;52.510;7.342;2024-03-08T04:31:07;46.35;;;26.20;;
26325;SDS011;14032;52.510;7.342;2024-03-08T04:33:32;45.22;;;25.17;;
26325;SDS011;14032;52.510;7.342;2024-03-08T04:36:01;50.10;;;26.88;;
26325;SDS011;14032;52.510;7.342;2024-03-08T04:38:29;47.85;;;25.15;;
26325;SDS011;14032;52.510;7.342;2024-03-08T04:40:56;46.15;;;23.60;;
26325;SDS011;14032;52.510;7.342;2024-03-08T04:43:23;47.38;;;25.70;;
26325;SDS011;14032;52.510;7.342;2024-03-08T04:45:52;47.67;;;27.35;;
26325;SDS011;14032;52.510;7.342;2024-03-08T04:48:18;44.55;;;26.60;;
26325;SDS011;14032;52.510;7.342;2024-03-08T04:50:45;51.03;;;26.40;;
26325;SDS011;14032;52.510;7.342;2024-03-08T04:53:11;47.15;;;26.25;;
26325;SDS011;14032;52.510;7.342;2024-03-08T04:55:36;48.08;;;26.75;;
26325;SDS011;14032;52.510;7.342;2024-03-08T04:58:02;45.88;;;26.70;;
26325;SDS011;14032;52.510;7.342;2024-03-08T05:00:30;49.03;;;27.00;;
26325;SDS011;14032;52.510;7.342;2024-03-08T05:02:57;44.90;;;26.05;;
26325;SDS011;14032;52.510;7.342;2024-03-08T05:05:23;52.10;;;27.63;;
26325;SDS011;14032;52.510;7.342;2024-03-08T05:07:49;53.40;;;26.08;;
26325;SDS011;14032;52.510;7.342;2024-03-08T05:10:15;48.45;;;26.60;;
26325;SDS011;14032;52.510;7.342;2024-03-08T05:12:43;50.30;;;27.25;;
26325;SDS011;14032;52.510;7.342;2024-03-08T05:15:09;52.10;;;27.70;;
26325;SDS011;14032;52.510;7.342;2024-03-08T05:17:34;53.63;;;27.10;;
26325;SDS011;14032;52.510;7.342;2024-03-08T05:20:00;50.92;;;27.35;;
26325;SDS011;14032;52.510;7.342;2024-03-08T05:22:26;53.00;;;26.90;;
26325;SDS011;14032;52.510;7.342;2024-03-08T05:24:51;58.90;;;27.35;;
26325;SDS011;14032;52.510;7.342;2024-03-08T05:27:17;50.58;;;27.65;;
26325;SDS011;14032;52.510;7.342;2024-03-08T05:29:42;54.72;;;26.90;;
26325;SDS011;14032;52.510;7.342;2024-03-08T05:32:08;48.80;;;26.52;;
26325;SDS011;14032;52.510;7.342;2024-03-08T05:34:35;51.88;;;27.08;;
26325;SDS011;14032;52.510;7.342;2024-03-08T05:37:01;48.83;;;26.13;;
26325;SDS011;14032;52.510;7.342;2024-03-08T05:39:27;49.85;;;27.15;;
26325;SDS011;14032;52.510;7.342;2024-03-08T05:41:53;54.30;;;28.02;;
26325;SDS011;14032;52.510;7.342;2024-03-08T05:44:20;58.13;;;29.10;;
26325;SDS011;14032;52.510;7.342;2024-03-08T05:46:46;53.35;;;28.25;;
26325;SDS011;14032;52.510;7.342;2024-03-08T05:49:11;50.53;;;27.48;;
26325;SDS011;14032;52.510;7.342;2024-03-08T05:51:38;53.13;;;28.08;;
26325;SDS011;14032;52.510;7.342;2024-03-08T05:54:05;53.50;;;28.35;;
26325;SDS011;14032;52.510;7.342;2024-03-08T05:56:33;60.35;;;27.65;;
26325;SDS011;14032;52.510;7.342;2024-03-08T05:58:59;55.47;;;28.42;;
26325;SDS011;14032;52.510;7.342;2024-03-08T06:01:25;57.00;;;27.80;;
26325;SDS011;14032;52.510;7.342;2024-03-08T06:03:55;50.78;;;27.73;;
26325;SDS011;14032;52.510;7.342;2024-03-08T06:06:22;56.33;;;28.67;;
26325;SDS011;14032;52.510;7.342;2024-03-08T06:08:48;57.10;;;29.10;;
26325;SDS011;14032;52.510;7.342;2024-03-08T06:11:14;60.22;;;29.35;;
26325;SDS011;14032;52.510;7.342;2024-03-08T06:13:43;48.25;;;26.92;;
26325;SDS011;14032;52.510;7.342;2024-03-08T06:16:09;56.75;;;28.13;;
26325;SDS011;14032;52.510;7.342;2024-03-08T06:18:35;54.00;;;28.15;;
26325;SDS011;14032;52.510;7.342;2024-03-08T06:21:02;51.65;;;27.48;;
26325;SDS011;14032;52.510;7.342;2024-03-08T06:23:34;55.70;;;28.00;;
26325;SDS011;14032;52.510;7.342;2024-03-08T06:26:06;51.78;;;28.08;;
26325;SDS011;14032;52.510;7.342;2024-03-08T06:28:33;58.40;;;27.75;;
26325;SDS011;14032;52.510;7.342;2024-03-08T06:30:59;57.30;;;30.45;;
26325;SDS011;14032;52.510;7.342;2024-03-08T06:33:25;53.92;;;27.98;;
26325;SDS011;14032;52.510;7.342;2024-03-08T06:35:52;51.65;;;27.70;;
26325;SDS011;14032;52.510;7.342;2024-03-08T06:38:19;56.63;;;29.08;;
26325;SDS011;14032;52.510;7.342;2024-03-08T06:40:45;50.90;;;29.60;;
26325;SDS011;14032;52.510;7.342;2024-03-08T06:43:13;64.13;;;28.90;;
26325;SDS011;14032;52.510;7.342;2024-03-08T06:45:41;60.38;;;27.90;;
26325;SDS011;14032;52.510;7.342;2024-03-08T06:48:13;53.53;;;29.23;;
26325;SDS011;14032;52.510;7.342;2024-03-08T06:50:42;52.15;;;28.48;;
26325;SDS011;14032;52.510;7.342;2024-03-08T06:53:09;53.60;;;28.73;;
26325;SDS011;14032;52.510;7.342;2024-03-08T06:55:35;57.33;;;29.25;;
26325;SDS011;14032;52.510;7.342;2024-03-08T06:58:03;51.60;;;29.13;;
26325;SDS011;14032;52.510;7.342;2024-03-08T07:00:28;53.97;;;30.13;;
26325;SDS011;14032;52.510;7.342;2024-03-08T07:02:58;56.80;;;28.35;;
26325;SDS011;14032;52.510;7.342;2024-03-08T07:05:28;57.38;;;30.55;;
26325;SDS011;14032;52.510;7.342;2024-03-08T07:07:54;57.90;;;29.65;;
26325;SDS011;14032;52.510;7.342;2024-03-08T07:10:23;55.45;;;29.48;;
26325;SDS011;14032;52.510;7.342;2024-03-08T07:12:51;50.08;;;28.40;;
26325;SDS011;14032;52.510;7.342;2024-03-08T07:15:20;53.50;;;28.15;;
26325;SDS011;14032;52.510;7.342;2024-03-08T07:17:46;54.60;;;28.27;;
26325;SDS011;14032;52.510;7.342;2024-03-08T07:20:14;56.35;;;29.17;;
26325;SDS011;14032;52.510;7.342;2024-03-08T07:22:43;51.45;;;27.63;;
26325;SDS011;14032;52.510;7.342;2024-03-08T07:25:12;60.80;;;28.65;;
26325;SDS011;14032;52.510;7.342;2024-03-08T07:27:54;59.10;;;28.83;;
26325;SDS011;14032;52.510;7.342;2024-03-08T07:30:21;49.78;;;26.95;;
26325;SDS011;14032;52.510;7.342;2024-03-08T07:33:07;50.90;;;28.08;;
26325;SDS011;14032;52.510;7.342;2024-03-08T07:35:33;46.67;;;26.85;;
26325;SDS011;14032;52.510;7.342;2024-03-08T07:38:05;50.28;;;28.45;;
26325;SDS011;14032;52.510;7.342;2024-03-08T07:40:40;49.42;;;26.75;;
26325;SDS011;14032;52.510;7.342;2024-03-08T07:43:11;51.75;;;27.05;;
26325;SDS011;14032;52.510;7.342;2024-03-08T07:45:47;46.97;;;26.02;;
26325;SDS011;14032;52.510;7.342;2024-03-08T07:48:12;52.47;;;27.98;;
26325;SDS011;14032;52.510;7.342;2024-03-08T07:50:39;49.10;;;26.45;;
26325;SDS011;14032;52.510;7.342;2024-03-08T07:53:08;47.17;;;26.63;;
26325;SDS011;14032;52.510;7.342;2024-03-08T07:55:35;46.50;;;26.67;;
26325;SDS011;14032;52.510;7.342;2024-03-08T07:58:01;51.40;;;29.23;;
26325;SDS011;14032;52.510;7.342;2024-03-08T08:00:28;46.03;;;26.45;;
26325;SDS011;14032;52.510;7.342;2024-03-08T08:02:55;49.92;;;27.98;;
26325;SDS011;14032;52.510;7.342;2024-03-08T08:05:22;46.25;;;27.35;;
26325;SDS011;14032;52.510;7.342;2024-03-08T08:07:48;52.78;;;27.35;;
26325;SDS011;14032;52.510;7.342;2024-03-08T08:10:14;48.10;;;26.58;;
26325;SDS011;14032;52.510;7.342;2024-03-08T08:12:50;47.65;;;26.50;;
26325;SDS011;14032;52.510;7.342;2024-03-08T08:15:18;52.45;;;28.08;;
26325;SDS011;14032;52.510;7.342;2024-03-08T08:17:45;51.25;;;26.52;;
26325;SDS011;14032;52.510;7.342;2024-03-08T08:20:18;50.20;;;28.67;;
26325;SDS011;14032;52.510;7.342;2024-03-08T08:22:44;53.08;;;27.55;;
26325;SDS011;14032;52.510;7.342;2024-03-08T08:25:09;48.78;;;27.13;;
26325;SDS011;14032;52.510;7.342;2024-03-08T08:27:38;55.20;;;28.33;;
26325;SDS011;14032;52.510;7.342;2024-03-08T08:30:07;45.67;;;27.02;;
26325;SDS011;14032;52.510;7.342;2024-03-08T08:32:34;53.10;;;28.38;;
26325;SDS011;14032;52.510;7.342;2024-03-08T08:35:19;49.63;;;27.23;;
26325;SDS011;14032;52.510;7.342;2024-03-08T08:37:45;47.83;;;26.85;;
26325;SDS011;14032;52.510;7.342;2024-03-08T08:40:11;50.05;;;26.45;;
26325;SDS011;14032;52.510;7.342;2024-03-08T08:42:42;49.47;;;27.17;;
26325;SDS011;14032;52.510;7.342;2024-03-08T08:45:08;55.50;;;28.60;;
26325;SDS011;14032;52.510;7.342;2024-03-08T08:47:35;48.92;;;27.50;;
26325;SDS011;14032;52.510;7.342;2024-03-08T08:50:02;49.90;;;29.67;;
26325;SDS011;14032;52.510;7.342;2024-03-08T08:52:29;50.70;;;28.17;;
26325;SDS011;14032;52.510;7.342;2024-03-08T08:54:55;45.88;;;26.27;;
26325;SDS011;14032;52.510;7.342;2024-03-08T08:57:21;45.72;;;26.08;;
26325;SDS011;14032;52.510;7.342;2024-03-08T08:59:47;50.85;;;28.05;;
26325;SDS011;14032;52.510;7.342;2024-03-08T09:02:13;46.17;;;25.95;;
26325;SDS011;14032;52.510;7.342;2024-03-08T09:04:39;47.42;;;28.15;;
26325;SDS011;14032;52.510;7.342;2024-03-08T09:07:05;50.17;;;28.15;;
26325;SDS011;14032;52.510;7.342;2024-03-08T09:09:33;46.90;;;27.58;;
26325;SDS011;14032;52.510;7.342;2024-03-08T09:11:59;48.60;;;27.10;;
26325;SDS011;14032;52.510;7.342;2024-03-08T09:14:26;52.97;;;28.00;;
26325;SDS011;14032;52.510;7.342;2024-03-08T09:16:52;45.17;;;27.42;;
26325;SDS011;14032;52.510;7.342;2024-03-08T09:19:17;50.03;;;27.65;;
26325;SDS011;14032;52.510;7.342;2024-03-08T09:21:44;48.58;;;28.33;;
26325;SDS011;14032;52.510;7.342;2024-03-08T09:24:10;48.70;;;27.67;;
26325;SDS011;14032;52.510;7.342;2024-03-08T09:26:36;51.17;;;27.08;;
26325;SDS011;14032;52.510;7.342;2024-03-08T09:29:02;52.10;;;27.65;;
26325;SDS011;14032;52.510;7.342;2024-03-08T09:31:29;48.97;;;27.50;;
26325;SDS011;14032;52.510;7.342;2024-03-08T09:33:56;43.10;;;26.35;;
26325;SDS011;14032;52.510;7.342;2024-03-08T09:36:22;45.90;;;27.42;;
26325;SDS011;14032;52.510;7.342;2024-03-08T09:38:47;52.67;;;27.35;;
26325;SDS011;14032;52.510;7.342;2024-03-08T09:41:15;51.13;;;28.95;;
26325;SDS011;14032;52.510;7.342;2024-03-08T09:43:40;46.97;;;27.65;;
26325;SDS011;14032;52.510;7.342;2024-03-08T09:46:06;49.65;;;27.63;;
26325;SDS011;14032;52.510;7.342;2024-03-08T09:48:33;45.20;;;26.38;;
26325;SDS011;14032;52.510;7.342;2024-03-08T09:50:59;44.85;;;27.50;;
26325;SDS011;14032;52.510;7.342;2024-03-08T09:53:25;53.83;;;29.23;;
26325;SDS011;14032;52.510;7.342;2024-03-08T09:55:55;44.25;;;27.02;;
26325;SDS011;14032;52.510;7.342;2024-03-08T09:58:21;51.67;;;28.33;;
26325;SDS011;14032;52.510;7.342;2024-03-08T10:00:53;50.95;;;28.20;;
26325;SDS011;14032;52.510;7.342;2024-03-08T10:03:19;46.97;;;26.80;;
26325;SDS011;14032;52.510;7.342;2024-03-08T10:05:45;46.45;;;28.02;;
26325;SDS011;14032;52.510;7.342;2024-03-08T10:08:12;43.17;;;26.38;;
26325;SDS011;14032;52.510;7.342;2024-03-08T10:10:38;51.78;;;27.58;;
26325;SDS011;14032;52.510;7.342;2024-03-08T10:13:07;45.22;;;26.92;;
26325;SDS011;14032;52.510;7.342;2024-03-08T10:15:35;45.33;;;27.13;;
26325;SDS011;14032;52.510;7.342;2024-03-08T10:18:01;48.13;;;27.52;;
26325;SDS011;14032;52.510;7.342;2024-03-08T10:20:27;46.53;;;26.92;;
26325;SDS011;14032;52.510;7.342;2024-03-08T10:23:04;50.97;;;27.90;;
26325;SDS011;14032;52.510;7.342;2024-03-08T10:25:32;46.30;;;27.15;;
26325;SDS011;14032;52.510;7.342;2024-03-08T10:27:58;43.80;;;26.23;;
26325;SDS011;14032;52.510;7.342;2024-03-08T10:30:23;50.75;;;28.33;;
26325;SDS011;14032;52.510;7.342;2024-03-08T10:32:49;49.28;;;27.30;;
26325;SDS011;14032;52.510;7.342;2024-03-08T10:35:17;43.03;;;24.38;;
26325;SDS011;14032;52.510;7.342;2024-03-08T10:37:47;49.92;;;27.88;;
26325;SDS011;14032;52.510;7.342;2024-03-08T10:40:18;45.35;;;26.50;;
26325;SDS011;14032;52.510;7.342;2024-03-08T10:43:00;44.15;;;26.88;;
26325;SDS011;14032;52.510;7.342;2024-03-08T10:45:38;42.67;;;26.83;;
26325;SDS011;14032;52.510;7.342;2024-03-08T10:50:59;45.30;;;27.73;;
26325;SDS011;14032;52.510;7.342;2024-03-08T10:53:27;43.60;;;26.65;;
26325;SDS011;14032;52.510;7.342;2024-03-08T10:55:56;47.78;;;26.73;;
26325;SDS011;14032;52.510;7.342;2024-03-08T10:58:23;42.65;;;26.20;;
26325;SDS011;14032;52.510;7.342;2024-03-08T11:00:56;48.13;;;27.15;;
26325;SDS011;14032;52.510;7.342;2024-03-08T11:06:18;49.35;;;27.23;;
26325;SDS011;14032;52.510;7.342;2024-03-08T11:15:01;41.30;;;24.60;;
26325;SDS011;14032;52.510;7.342;2024-03-08T11:22:50;40.55;;;25.38;;
26325;SDS011;14032;52.510;7.342;2024-03-08T11:25:38;43.13;;;25.83;;
26325;SDS011;14032;52.510;7.342;2024-03-08T11:28:17;43.50;;;26.08;;
26325;SDS011;14032;52.510;7.342;2024-03-08T11:30:45;37.97;;;23.75;;
26325;SDS011;14032;52.510;7.342;2024-03-08T11:33:34;42.72;;;25.63;;
26325;SDS011;14032;52.510;7.342;2024-03-08T11:36:10;38.90;;;25.05;;
26325;SDS011;14032;52.510;7.342;2024-03-08T11:38:45;39.75;;;24.00;;
26325;SDS011;14032;52.510;7.342;2024-03-08T11:41:20;39.03;;;24.35;;
26325;SDS011;14032;52.510;7.342;2024-03-08T11:43:47;39.58;;;25.15;;
26325;SDS011;14032;52.510;7.342;2024-03-08T11:46:15;38.90;;;23.15;;
26325;SDS011;14032;52.510;7.342;2024-03-08T11:48:42;40.63;;;24.20;;
26325;SDS011;14032;52.510;7.342;2024-03-08T11:51:12;37.67;;;23.63;;
26325;SDS011;14032;52.510;7.342;2024-03-08T11:53:40;37.00;;;23.48;;
26325;SDS011;14032;52.510;7.342;2024-03-08T11:56:13;40.17;;;23.90;;
26325;SDS011;14032;52.510;7.342;2024-03-08T11:58:39;39.33;;;25.05;;
26325;SDS011;14032;52.510;7.342;2024-03-08T12:01:07;39.95;;;25.17;;
26325;SDS011;14032;52.510;7.342;2024-03-08T12:03:42;39.28;;;24.67;;
26325;SDS011;14032;52.510;7.342;2024-03-08T12:06:08;39.08;;;24.00;;
26325;SDS011;14032;52.510;7.342;2024-03-08T12:08:35;38.50;;;24.08;;
26325;SDS011;14032;52.510;7.342;2024-03-08T12:11:02;39.22;;;24.15;;
26325;SDS011;14032;52.510;7.342;2024-03-08T12:13:32;38.25;;;24.27;;
26325;SDS011;14032;52.510;7.342;2024-03-08T12:15:59;37.90;;;23.77;;
26325;SDS011;14032;52.510;7.342;2024-03-08T12:18:25;39.92;;;23.40;;
26325;SDS011;14032;52.510;7.342;2024-03-08T12:21:11;41.53;;;23.70;;
26325;SDS011;14032;52.510;7.342;2024-03-08T12:23:45;38.60;;;23.98;;
26325;SDS011;14032;52.510;7.342;2024-03-08T12:28:44;39.85;;;23.48;;
26325;SDS011;14032;52.510;7.342;2024-03-08T12:31:14;41.30;;;24.77;;
26325;SDS011;14032;52.510;7.342;2024-03-08T12:33:48;38.30;;;24.08;;
26325;SDS011;14032;52.510;7.342;2024-03-08T12:36:18;40.83;;;22.52;;
26325;SDS011;14032;52.510;7.342;2024-03-08T12:38:45;35.80;;;22.90;;
26325;SDS011;14032;52.510;7.342;2024-03-08T12:41:16;36.10;;;23.48;;
26325;SDS011;14032;52.510;7.342;2024-03-08T12:43:43;36.17;;;22.90;;
26325;SDS011;14032;52.510;7.342;2024-03-08T12:46:19;35.20;;;22.23;;
26325;SDS011;14032;52.510;7.342;2024-03-08T12:48:46;40.83;;;24.27;;
26325;SDS011;14032;52.510;7.342;2024-03-08T12:51:13;37.47;;;23.13;;
26325;SDS011;14032;52.510;7.342;2024-03-08T12:53:44;33.92;;;21.77;;
26325;SDS011;14032;52.510;7.342;2024-03-08T12:56:12;34.15;;;22.08;;
26325;SDS011;14032;52.510;7.342;2024-03-08T12:58:39;39.30;;;23.13;;
26325;SDS011;14032;52.510;7.342;2024-03-08T13:01:05;34.60;;;22.17;;
26325;SDS011;14032;52.510;7.342;2024-03-08T13:03:34;36.20;;;23.67;;
26325;SDS011;14032;52.510;7.342;2024-03-08T13:06:02;35.05;;;23.52;;
26325;SDS011;14032;52.510;7.342;2024-03-08T13:08:30;39.85;;;23.70;;
26325;SDS011;14032;52.510;7.342;2024-03-08T13:11:00;35.08;;;22.90;;
26325;SDS011;14032;52.510;7.342;2024-03-08T13:13:26;36.20;;;23.23;;
26325;SDS011;14032;52.510;7.342;2024-03-08T13:15:52;43.15;;;23.70;;
26325;SDS011;14032;52.510;7.342;2024-03-08T13:18:18;36.63;;;23.70;;
26325;SDS011;14032;52.510;7.342;2024-03-08T13:20:43;38.10;;;23.00;;
26325;SDS011;14032;52.510;7.342;2024-03-08T13:23:14;36.05;;;23.48;;
26325;SDS011;14032;52.510;7.342;2024-03-08T13:25:40;41.45;;;23.50;;
26325;SDS011;14032;52.510;7.342;2024-03-08T13:28:06;37.30;;;23.42;;
26325;SDS011;14032;52.510;7.342;2024-03-08T13:30:34;48.55;;;24.20;;
26325;SDS011;14032;52.510;7.342;2024-03-08T13:33:00;35.55;;;23.30;;
26325;SDS011;14032;52.510;7.342;2024-03-08T13:35:29;39.17;;;22.63;;
26325;SDS011;14032;52.510;7.342;2024-03-08T13:37:55;33.03;;;22.73;;
26325;SDS011;14032;52.510;7.342;2024-03-08T13:40:24;35.53;;;22.17;;
26325;SDS011;14032;52.510;7.342;2024-03-08T13:42:53;36.78;;;22.20;;
26325;SDS011;14032;52.510;7.342;2024-03-08T13:45:18;38.35;;;23.52;;
26325;SDS011;14032;52.510;7.342;2024-03-08T13:47:48;36.97;;;22.23;;
26325;SDS011;14032;52.510;7.342;2024-03-08T13:50:21;37.65;;;22.45;;
26325;SDS011;14032;52.510;7.342;2024-03-08T13:52:53;37.70;;;22.67;;
26325;SDS011;14032;52.510;7.342;2024-03-08T13:55:19;34.85;;;22.30;;
26325;SDS011;14032;52.510;7.342;2024-03-08T13:57:48;39.25;;;22.40;;
26325;SDS011;14032;52.510;7.342;2024-03-08T14:00:14;39.85;;;22.55;;
26325;SDS011;14032;52.510;7.342;2024-03-08T14:02:40;38.45;;;24.17;;
26325;SDS011;14032;52.510;7.342;2024-03-08T14:05:09;37.75;;;23.58;;
26325;SDS011;14032;52.510;7.342;2024-03-08T14:07:36;36.05;;;22.20;;
26325;SDS011;14032;52.510;7.342;2024-03-08T14:10:02;39.35;;;22.58;;
26325;SDS011;14032;52.510;7.342;2024-03-08T14:12:28;33.67;;;22.20;;
26325;SDS011;14032;52.510;7.342;2024-03-08T14:14:55;38.92;;;21.90;;
26325;SDS011;14032;52.510;7.342;2024-03-08T14:17:24;38.47;;;22.45;;
26325;SDS011;14032;52.510;7.342;2024-03-08T14:19:52;32.67;;;21.70;;
26325;SDS011;14032;52.510;7.342;2024-03-08T14:22:17;38.08;;;23.23;;
26325;SDS011;14032;52.510;7.342;2024-03-08T14:24:45;36.47;;;22.55;;
26325;SDS011;14032;52.510;7.342;2024-03-08T14:27:10;36.85;;;22.92;;
26325;SDS011;14032;52.510;7.342;2024-03-08T14:29:37;37.72;;;23.42;;
26325;SDS011;14032;52.510;7.342;2024-03-08T14:32:04;35.22;;;22.08;;
26325;SDS011;14032;52.510;7.342;2024-03-08T14:34:31;37.55;;;22.67;;
26325;SDS011;14032;52.510;7.342;2024-03-08T14:37:00;37.33;;;21.80;;
26325;SDS011;14032;52.510;7.342;2024-03-08T14:39:30;35.20;;;21.52;;
26325;SDS011;14032;52.510;7.342;2024-03-08T14:41:58;35.20;;;22.20;;
26325;SDS011;14032;52.510;7.342;2024-03-08T14:44:25;38.63;;;22.55;;